Time;durP1;ratioP1;P1;durP2;ratioP2;P2;SDS_P1;SDS_P2;PMS_P1;PMS_P2;Temp;Humidity;BMP_temperature;BMP_pressure;BME280_temperature;BME280_humidity;BME280_pressure;Samples;Min_cycle;Max_cycle;Signal;HPM_P1;HPM_P2
2023/03/20 00:01:21;;;;;;;5.43;5.03;;;10.10;99.90;;;;;;5017906;28;20804;-69
2023/03/20 00:03:47;;;;;;;6.57;5.40;;;10.10;99.90;;;;;;5013823;28;20793;-69
2023/03/20 00:06:30;;;;;;;5.33;4.83;;;10.10;99.90;;;;;;5017175;28;20461;-69
2023/03/20 00:08:56;;;;;;;6.30;5.70;;;10.10;99.90;;;;;;5013673;28;20203;-69
2023/03/20 00:11:21;;;;;;;6.00;5.50;;;10.00;99.90;;;;;;5013680;28;20473;-68
2023/03/20 00:13:47;;;;;;;5.53;5.13;;;10.10;99.90;;;;;;5013002;28;20883;-69
2023/03/20 00:16:12;;;;;;;6.80;5.90;;;10.00;99.90;;;;;;5012634;28;20179;-69
2023/03/20 00:18:40;;;;;;;5.60;5.10;;;10.00;99.90;;;;;;5011942;28;20539;-69
2023/03/20 00:21:15;;;;;;;6.20;5.80;;;10.00;99.90;;;;;;5012764;28;20186;-69
2023/03/20 00:23:41;;;;;;;5.37;4.97;;;10.00;99.90;;;;;;5012080;28;20437;-68
2023/03/20 00:26:12;;;;;;;5.53;5.03;;;9.90;99.90;;;;;;5012082;28;20508;-68
2023/03/20 00:28:43;;;;;;;4.37;3.80;;;9.80;99.90;;;;;;5011665;28;20517;-68
2023/03/20 00:31:30;;;;;;;4.63;4.23;;;9.70;99.90;;;;;;5012352;28;20462;-68
2023/03/20 00:33:59;;;;;;;4.50;4.10;;;9.50;99.90;;;;;;5011331;28;20430;-68
2023/03/20 00:36:25;;;;;;;4.67;3.87;;;9.50;99.90;;;;;;5011663;28;20485;-69
2023/03/20 00:38:51;;;;;;;4.93;4.53;;;9.50;99.90;;;;;;5010163;28;20464;-68
2023/03/20 00:41:28;;;;;;;4.50;4.07;;;9.40;99.90;;;;;;5013802;28;20421;-69
2023/03/20 00:43:58;;;;;;;4.20;3.63;;;9.50;99.90;;;;;;5010662;28;20429;-69
2023/03/20 00:46:24;;;;;;;6.10;5.57;;;9.50;99.90;;;;;;5011677;28;20429;-69
2023/03/20 00:48:51;;;;;;;4.70;4.30;;;9.60;99.90;;;;;;5005172;28;20458;-68
2023/03/20 00:51:17;;;;;;;4.53;4.13;;;9.60;99.90;;;;;;5002767;28;20434;-69
2023/03/20 00:53:43;;;;;;;4.20;3.90;;;9.70;99.90;;;;;;5007017;28;20842;-67
2023/03/20 00:56:27;;;;;;;3.90;3.60;;;9.70;99.90;;;;;;5013075;28;20465;-68
2023/03/20 00:58:52;;;;;;;5.57;4.20;;;9.70;99.90;;;;;;5010843;28;20573;-69
2023/03/20 01:01:18;;;;;;;4.23;3.93;;;9.60;99.90;;;;;;5010815;28;20429;-68
2023/03/20 01:03:44;;;;;;;4.43;4.03;;;9.60;99.90;;;;;;5015439;28;20636;-67
2023/03/20 01:06:11;;;;;;;4.80;4.50;;;9.60;99.90;;;;;;5011121;28;20529;-69
2023/03/20 01:08:37;;;;;;;4.50;4.20;;;9.60;99.90;;;;;;5011982;28;20199;-68
2023/03/20 01:11:03;;;;;;;4.93;4.53;;;9.60;99.90;;;;;;5012046;28;20434;-69
2023/03/20 01:13:29;;;;;;;5.10;4.60;;;9.60;99.90;;;;;;5011728;28;20182;-69
2023/03/20 01:15:59;;;;;;;4.37;4.00;;;9.60;99.90;;;;;;5010950;28;20202;-69
2023/03/20 01:18:25;;;;;;;4.23;3.93;;;9.60;99.90;;;;;;5011079;28;20437;-68
2023/03/20 01:20:52;;;;;;;5.10;4.73;;;9.70;99.90;;;;;;5008015;28;20501;-69
2023/03/20 01:23:18;;;;;;;4.23;3.93;;;9.70;99.90;;;;;;5009746;28;21017;-69
2023/03/20 01:25:44;;;;;;;5.30;4.80;;;9.60;99.90;;;;;;5009041;28;20464;-68
2023/03/20 01:28:19;;;;;;;4.53;4.13;;;9.60;99.90;;;;;;5008014;28;20438;-68
2023/03/20 01:30:46;;;;;;;5.13;4.47;;;9.60;99.90;;;;;;5010104;28;20457;-69
2023/03/20 01:33:17;;;;;;;6.43;3.80;;;9.60;99.90;;;;;;5002388;28;20444;-68
2023/03/20 01:35:44;;;;;;;4.07;3.67;;;9.50;99.90;;;;;;5010093;28;20461;-69
2023/03/20 01:38:25;;;;;;;3.60;3.30;;;9.40;99.90;;;;;;5012063;28;20433;-68
2023/03/20 01:41:16;;;;;;;3.57;3.27;;;9.40;99.90;;;;;;5010883;28;20434;-69
2023/03/20 01:43:43;;;;;;;3.47;3.13;;;9.40;99.90;;;;;;5010810;28;20808;-68
2023/03/20 01:46:30;;;;;;;3.43;3.13;;;9.40;99.90;;;;;;5012044;28;20437;-68
2023/03/20 01:49:28;;;;;;;2.30;2.10;;;9.40;99.90;;;;;;5007703;28;20478;-69
2023/03/20 01:51:55;;;;;;;2.33;2.23;;;9.40;99.90;;;;;;5011121;28;20433;-69
2023/03/20 01:54:37;;;;;;;2.27;2.07;;;9.40;99.90;;;;;;5008285;28;20430;-68
2023/03/20 01:57:11;;;;;;;2.30;2.10;;;9.40;99.90;;;;;;5007933;28;20802;-69
2023/03/20 01:59:48;;;;;;;3.00;2.80;;;9.40;99.90;;;;;;5008348;28;20824;-69
2023/03/20 02:02:19;;;;;;;3.00;2.80;;;9.50;99.90;;;;;;5008735;28;20486;-69
2023/03/20 02:04:48;;;;;;;2.97;2.77;;;9.50;99.90;;;;;;5011703;28;20507;-69
2023/03/20 02:07:17;;;;;;;2.27;2.07;;;9.60;99.90;;;;;;5004558;28;20430;-69
2023/03/20 02:09:42;;;;;;;2.27;2.07;;;9.60;99.90;;;;;;5009321;28;20519;-69
2023/03/20 02:12:09;;;;;;;2.20;2.07;;;9.60;99.90;;;;;;5007152;28;20953;-68
2023/03/20 02:14:35;;;;;;;1.70;1.60;;;9.60;99.90;;;;;;5009079;28;20230;-69
2023/03/20 02:17:05;;;;;;;1.53;1.43;;;9.70;99.90;;;;;;5005437;28;20525;-69
2023/03/20 02:19:54;;;;;;;1.83;1.73;;;9.70;99.90;;;;;;5008817;28;20222;-69
2023/03/20 02:22:44;;;;;;;3.83;3.53;;;9.70;99.90;;;;;;5011702;28;21009;-69
2023/03/20 02:25:47;;;;;;;2.87;2.67;;;9.70;99.90;;;;;;5009610;28;20433;-68
2023/03/20 02:28:30;;;;;;;2.53;2.33;;;9.60;99.90;;;;;;5001779;28;20444;-68
2023/03/20 02:31:05;;;;;;;3.83;2.73;;;9.60;99.90;;;;;;5007905;28;20429;-69
2023/03/20 02:34:05;;;;;;;6.70;2.80;;;9.70;99.90;;;;;;5010842;28;20432;-69
2023/03/20 02:36:51;;;;;;;3.00;2.80;;;9.70;99.90;;;;;;5008093;28;20466;-69
2023/03/20 02:39:37;;;;;;;3.87;3.57;;;9.70;99.90;;;;;;5010018;28;20452;-70
2023/03/20 02:42:27;;;;;;;2.40;2.20;;;9.70;99.90;;;;;;5009390;28;20762;-69
2023/03/20 02:45:16;;;;;;;1.40;1.30;;;9.70;99.90;;;;;;5008934;28;20429;-70
2023/03/20 02:48:10;;;;;;;2.87;2.67;;;9.70;99.90;;;;;;5006384;28;20441;-69
2023/03/20 02:50:56;;;;;;;3.00;1.23;;;9.70;99.90;;;;;;5004476;28;20552;-68
2023/03/20 02:53:47;;;;;;;1.47;1.37;;;9.60;99.90;;;;;;5010597;28;20855;-70
2023/03/20 02:56:21;;;;;;;2.17;1.90;;;9.50;99.90;;;;;;5003261;28;20477;-69
2023/03/20 02:58:59;;;;;;;1.27;1.17;;;9.50;99.90;;;;;;5010159;28;20828;-68
2023/03/20 03:01:34;;;;;;;1.60;1.43;;;9.40;99.90;;;;;;5012816;28;20461;-68
2023/03/20 03:04:03;;;;;;;1.40;1.30;;;9.40;99.90;;;;;;5010835;28;20433;-69
2023/03/20 03:06:32;;;;;;;1.30;1.20;;;9.50;99.90;;;;;;5011230;28;20437;-69
2023/03/20 03:09:03;;;;;;;1.57;1.17;;;9.40;99.90;;;;;;5012095;28;20458;-69
2023/03/20 03:11:36;;;;;;;0.90;0.90;;;9.40;99.90;;;;;;5012673;28;20437;-70
2023/03/20 03:14:04;;;;;;;2.43;1.03;;;9.50;99.90;;;;;;5015358;28;20444;-69
2023/03/20 03:16:36;;;;;;;1.00;1.00;;;9.40;99.90;;;;;;5014443;28;20472;-69
2023/03/20 03:19:08;;;;;;;1.17;1.03;;;9.50;99.90;;;;;;5014873;28;20536;-69
2023/03/20 03:21:37;;;;;;;1.20;1.10;;;9.50;99.90;;;;;;5013672;28;21186;-70
2023/03/20 03:24:03;;;;;;;1.10;1.00;;;9.60;99.90;;;;;;5014810;28;20819;-68
2023/03/20 03:26:35;;;;;;;1.40;1.30;;;9.60;99.90;;;;;;5013879;28;20856;-69
2023/03/20 03:29:09;;;;;;;1.00;1.00;;;9.60;99.90;;;;;;5014834;28;20833;-69
2023/03/20 03:31:37;;;;;;;1.27;1.00;;;9.70;99.90;;;;;;5019568;28;20507;-70
2023/03/20 03:34:03;;;;;;;1.00;1.00;;;9.70;99.90;;;;;;5014985;28;20494;-69
2023/03/20 03:36:50;;;;;;;1.30;1.20;;;9.60;99.90;;;;;;5014167;28;20471;-70
2023/03/20 03:39:27;;;;;;;0.80;0.80;;;9.60;99.90;;;;;;5013494;28;20572;-68
2023/03/20 03:42:06;;;;;;;1.37;1.30;;;9.60;99.90;;;;;;5013448;28;20424;-69
2023/03/20 03:44:46;;;;;;;1.20;1.10;;;9.60;99.90;;;;;;5014906;28;20452;-68
2023/03/20 03:47:18;;;;;;;2.67;1.40;;;9.60;99.90;;;;;;5012335;28;20439;-69
2023/03/20 03:49:50;;;;;;;2.07;1.47;;;9.50;99.90;;;;;;5028905;23;20888;-72
2023/03/20 03:52:21;;;;;;;1.77;1.40;;;9.60;99.90;;;;;;5006822;28;20440;-71
2023/03/20 03:55:07;;;;;;;2.20;2.00;;;9.60;99.90;;;;;;5014144;28;20496;-72
2023/03/20 03:58:00;;;;;;;1.40;1.30;;;9.50;99.90;;;;;;5009197;28;20959;-71
2023/03/20 04:00:27;;;;;;;1.60;1.50;;;9.50;99.90;;;;;;5000631;28;20512;-71
2023/03/20 04:02:56;;;;;;;1.50;1.40;;;9.40;99.90;;;;;;4992989;28;20802;-71
2023/03/20 04:05:26;;;;;;;1.77;1.07;;;9.40;99.90;;;;;;4994032;28;20457;-71
2023/03/20 04:07:54;;;;;;;1.40;1.20;;;9.40;99.90;;;;;;4994651;28;20441;-72
2023/03/20 04:10:20;;;;;;;1.20;1.10;;;9.30;99.90;;;;;;4993405;28;20553;-72
2023/03/20 04:12:46;;;;;;;1.10;1.10;;;9.30;99.90;;;;;;4990271;28;20442;-72
2023/03/20 04:15:14;;;;;;;1.20;1.10;;;9.30;99.90;;;;;;4991824;28;20683;-71
2023/03/20 04:17:40;;;;;;;1.40;1.30;;;9.20;99.90;;;;;;4994315;28;20184;-71
2023/03/20 04:20:07;;;;;;;1.30;1.20;;;9.20;99.90;;;;;;4993457;28;20459;-71
2023/03/20 04:22:33;;;;;;;1.53;1.20;;;9.10;99.90;;;;;;4992133;28;20215;-71
2023/03/20 04:25:04;;;;;;;1.77;1.67;;;9.10;99.90;;;;;;4993843;28;20430;-71
2023/03/20 04:27:29;;;;;;;2.30;1.40;;;9.20;99.90;;;;;;4993782;28;20443;-71
2023/03/20 04:29:55;;;;;;;1.10;1.00;;;9.20;99.90;;;;;;4993443;28;20465;-72
2023/03/20 04:32:21;;;;;;;1.43;1.33;;;9.20;99.90;;;;;;4993431;28;20250;-71
2023/03/20 04:34:46;;;;;;;1.50;1.23;;;9.10;99.90;;;;;;4993437;28;20307;-71
2023/03/20 04:37:12;;;;;;;1.20;1.10;;;9.10;99.90;;;;;;4991730;28;20262;-72
2023/03/20 04:39:38;;;;;;;1.10;0.90;;;9.00;99.90;;;;;;4993467;28;20230;-71
2023/03/20 04:42:05;;;;;;;1.07;1.00;;;9.00;99.90;;;;;;4993566;28;20438;-71
2023/03/20 04:44:31;;;;;;;1.60;1.50;;;8.90;99.90;;;;;;4993288;28;20225;-71
2023/03/20 04:46:56;;;;;;;2.23;1.70;;;8.90;99.90;;;;;;4993563;28;20857;-71
2023/03/20 04:49:22;;;;;;;1.43;1.20;;;8.90;99.90;;;;;;4991776;28;20500;-71
2023/03/20 04:51:48;;;;;;;1.40;1.30;;;8.90;99.90;;;;;;4993169;28;20641;-71
2023/03/20 04:54:13;;;;;;;1.30;1.10;;;9.00;99.90;;;;;;4993670;28;20522;-71
2023/03/20 04:56:39;;;;;;;1.30;0.80;;;9.00;99.90;;;;;;4992916;28;20482;-71
2023/03/20 04:59:05;;;;;;;1.83;1.10;;;9.00;99.90;;;;;;4992179;28;20179;-72
2023/03/20 05:01:30;;;;;;;1.63;1.10;;;9.00;99.90;;;;;;4993509;28;20194;-72
2023/03/20 05:03:59;;;;;;;1.07;1.00;;;9.00;99.90;;;;;;4993803;28;20187;-71
2023/03/20 05:06:26;;;;;;;1.17;1.13;;;9.00;99.90;;;;;;4993196;28;20889;-71
2023/03/20 05:08:52;;;;;;;1.10;1.00;;;9.10;99.90;;;;;;4992931;28;20442;-71
2023/03/20 05:11:17;;;;;;;1.43;1.10;;;9.10;99.90;;;;;;4993108;28;20546;-71
2023/03/20 05:13:43;;;;;;;5.37;1.20;;;9.20;99.90;;;;;;4993730;28;20180;-71
2023/03/20 05:16:08;;;;;;;1.30;1.20;;;9.10;99.90;;;;;;4990272;28;20212;-72
2023/03/20 05:18:34;;;;;;;0.87;0.87;;;9.20;99.90;;;;;;4999853;28;20276;-72
2023/03/20 05:21:01;;;;;;;1.40;1.30;;;9.10;99.90;;;;;;4991522;28;20316;-71
2023/03/20 05:23:27;;;;;;;1.00;1.00;;;9.20;99.90;;;;;;4990591;28;20179;-72
2023/03/20 05:25:52;;;;;;;2.40;1.23;;;9.20;99.90;;;;;;4992992;28;20449;-72
2023/03/20 05:28:18;;;;;;;1.80;1.63;;;9.20;99.90;;;;;;4992818;28;20664;-72
2023/03/20 05:30:44;;;;;;;4.70;1.30;;;9.30;99.90;;;;;;4993356;28;20282;-72
2023/03/20 05:33:09;;;;;;;2.60;1.40;;;9.30;99.90;;;;;;4991481;28;20702;-71
2023/03/20 05:35:35;;;;;;;3.10;2.50;;;9.30;99.90;;;;;;4992182;28;20208;-71
2023/03/20 05:38:00;;;;;;;1.87;1.63;;;9.20;99.90;;;;;;4993250;28;20188;-71
2023/03/20 05:40:26;;;;;;;1.60;1.50;;;9.20;99.90;;;;;;4991047;28;20203;-72
2023/03/20 05:42:51;;;;;;;2.10;1.47;;;9.30;99.90;;;;;;4991558;28;20183;-72
2023/03/20 05:45:17;;;;;;;2.10;1.70;;;9.30;99.90;;;;;;4992070;28;20184;-72
2023/03/20 05:47:43;;;;;;;1.40;1.30;;;9.30;99.90;;;;;;4996971;28;20198;-72
2023/03/20 05:50:09;;;;;;;1.30;1.20;;;9.30;99.90;;;;;;4989994;28;20219;-72
2023/03/20 05:52:35;;;;;;;1.33;1.23;;;9.30;99.90;;;;;;4990267;28;20246;-71
2023/03/20 05:55:00;;;;;;;2.30;2.03;;;9.30;99.90;;;;;;4992100;28;21061;-71
2023/03/20 05:57:26;;;;;;;3.20;1.63;;;9.30;99.90;;;;;;4989285;28;20262;-72
2023/03/20 05:59:51;;;;;;;4.77;2.23;;;9.40;99.90;;;;;;4991333;28;20784;-71
2023/03/20 06:02:17;;;;;;;1.80;1.70;;;9.40;99.90;;;;;;4991818;28;20172;-71
2023/03/20 06:04:43;;;;;;;4.00;3.03;;;9.40;99.90;;;;;;4988950;28;20675;-72
2023/03/20 06:07:08;;;;;;;3.70;2.13;;;9.40;99.90;;;;;;4998037;28;20183;-72
2023/03/20 06:09:34;;;;;;;2.83;2.63;;;9.40;99.90;;;;;;4990227;28;20210;-72
2023/03/20 06:11:59;;;;;;;4.47;4.00;;;9.40;99.90;;;;;;4990054;28;20187;-71
2023/03/20 06:14:25;;;;;;;2.70;2.50;;;9.40;99.90;;;;;;4989944;28;20209;-70
2023/03/20 06:16:52;;;;;;;2.63;1.97;;;9.50;99.90;;;;;;4989528;28;20179;-69
2023/03/20 06:19:18;;;;;;;2.80;2.00;;;9.40;99.90;;;;;;4990293;28;20287;-70
2023/03/20 06:21:44;;;;;;;4.70;2.60;;;9.50;99.90;;;;;;4991231;28;20521;-70
2023/03/20 06:24:09;;;;;;;2.10;1.90;;;9.60;99.90;;;;;;4990771;28;20485;-71
2023/03/20 06:26:35;;;;;;;1.60;1.50;;;9.60;99.90;;;;;;4989088;28;20530;-71
2023/03/20 06:29:00;;;;;;;2.83;2.40;;;9.60;99.90;;;;;;4990376;28;20194;-71
2023/03/20 06:31:26;;;;;;;3.47;2.10;;;9.60;99.90;;;;;;4991865;28;20183;-71
2023/03/20 06:33:51;;;;;;;2.20;2.00;;;9.80;99.90;;;;;;4991652;28;20195;-71
2023/03/20 06:36:17;;;;;;;2.90;2.10;;;9.90;99.90;;;;;;4992569;28;20564;-71
2023/03/20 06:38:43;;;;;;;3.40;3.10;;;10.00;99.90;;;;;;4991669;28;20207;-71
2023/03/20 06:41:08;;;;;;;2.37;2.27;;;10.10;99.90;;;;;;4992744;28;20199;-71
2023/03/20 06:43:34;;;;;;;4.80;3.20;;;10.20;99.90;;;;;;4992121;28;20206;-71
2023/03/20 06:45:59;;;;;;;5.60;3.10;;;10.30;99.90;;;;;;4992636;28;20189;-71
2023/03/20 06:48:25;;;;;;;6.00;2.43;;;10.30;99.90;;;;;;4992067;28;20172;-71
2023/03/20 06:50:51;;;;;;;2.40;2.20;;;10.20;99.90;;;;;;4992650;28;20568;-71
2023/03/20 06:53:17;;;;;;;2.20;2.00;;;10.20;99.90;;;;;;4991476;28;20201;-71
2023/03/20 06:55:47;;;;;;;2.53;2.33;;;10.40;99.90;;;;;;4991714;28;20466;-71
2023/03/20 06:58:13;;;;;;;4.97;1.87;;;10.50;99.90;;;;;;4983139;28;20172;-72
2023/03/20 07:00:38;;;;;;;3.60;1.90;;;10.50;99.90;;;;;;4992430;28;21025;-71
2023/03/20 07:03:04;;;;;;;2.50;1.77;;;10.70;99.90;;;;;;4991571;28;20167;-72
2023/03/20 07:05:29;;;;;;;1.97;1.87;;;10.80;99.90;;;;;;4992684;28;20171;-72
2023/03/20 07:07:55;;;;;;;2.63;2.20;;;10.80;99.90;;;;;;4991871;28;20661;-71
2023/03/20 07:10:21;;;;;;;2.50;2.30;;;10.80;99.90;;;;;;4991632;28;20586;-72
2023/03/20 07:12:47;;;;;;;3.03;1.67;;;10.90;99.90;;;;;;4991208;28;20175;-72
2023/03/20 07:15:12;;;;;;;1.83;1.73;;;11.10;99.90;;;;;;4992531;28;20513;-72
2023/03/20 07:17:38;;;;;;;2.90;1.80;;;11.20;99.90;;;;;;4992006;28;20540;-72
2023/03/20 07:20:04;;;;;;;3.50;1.60;;;11.20;99.90;;;;;;4991492;28;20196;-72
2023/03/20 07:22:30;;;;;;;2.27;1.60;;;11.30;99.90;;;;;;4992344;28;20518;-72
2023/03/20 07:24:56;;;;;;;2.30;2.10;;;11.40;99.90;;;;;;4992390;28;20505;-72
2023/03/20 07:27:22;;;;;;;5.57;1.77;;;11.50;99.90;;;;;;4991811;28;20453;-72
2023/03/20 07:29:48;;;;;;;3.67;2.00;;;11.50;99.90;;;;;;4991415;28;20446;-72
2023/03/20 07:32:13;;;;;;;1.70;1.60;;;11.50;99.90;;;;;;4989953;28;20260;-71
2023/03/20 07:34:39;;;;;;;3.73;2.47;;;11.40;99.90;;;;;;4991852;28;20664;-71
2023/03/20 07:37:05;;;;;;;2.10;1.90;;;11.20;99.90;;;;;;4988717;28;20188;-72
2023/03/20 07:39:31;;;;;;;2.40;2.20;;;11.00;99.90;;;;;;4984315;28;20230;-71
2023/03/20 07:41:56;;;;;;;1.70;1.60;;;10.90;99.90;;;;;;4988733;28;20456;-71
2023/03/20 07:44:22;;;;;;;3.53;2.00;;;11.10;99.90;;;;;;4992128;28;20180;-72
2023/03/20 07:46:47;;;;;;;2.20;2.00;;;11.20;99.90;;;;;;4992110;28;20191;-72
2023/03/20 07:49:13;;;;;;;2.10;1.90;;;11.40;99.90;;;;;;4994962;28;20231;-71
2023/03/20 07:51:39;;;;;;;3.40;1.80;;;11.50;99.90;;;;;;4995932;28;20266;-72
2023/03/20 07:54:05;;;;;;;2.70;1.80;;;11.70;99.90;;;;;;4996018;28;20873;-72
2023/03/20 07:56:30;;;;;;;1.83;1.70;;;11.90;99.90;;;;;;4994166;28;20755;-72
2023/03/20 07:58:56;;;;;;;2.63;2.43;;;12.10;99.90;;;;;;4994824;28;20178;-72
2023/03/20 08:01:22;;;;;;;2.53;1.90;;;12.40;99.90;;;;;;4995566;28;20179;-72
2023/03/20 08:03:47;;;;;;;3.13;2.60;;;12.60;99.90;;;;;;4995632;28;20183;-72
2023/03/20 08:06:13;;;;;;;1.77;1.67;;;12.80;99.90;;;;;;4994515;28;20442;-72
2023/03/20 08:08:38;;;;;;;2.93;2.00;;;12.80;99.90;;;;;;4994829;28;20186;-71
2023/03/20 08:11:04;;;;;;;2.00;1.90;;;13.10;99.90;;;;;;4995348;28;20683;-72
2023/03/20 08:13:30;;;;;;;2.33;2.13;;;13.20;99.90;;;;;;4987381;28;20261;-72
2023/03/20 08:15:55;;;;;;;2.27;1.83;;;13.10;99.90;;;;;;4995152;28;20466;-71
2023/03/20 08:18:21;;;;;;;2.10;1.97;;;13.20;99.90;;;;;;4994438;28;20175;-72
2023/03/20 08:20:49;;;;;;;2.33;2.13;;;13.00;99.90;;;;;;4994609;28;20188;-73
2023/03/20 08:23:15;;;;;;;2.50;2.30;;;12.80;99.90;;;;;;4995160;28;20242;-71
2023/03/20 08:25:41;;;;;;;2.93;2.63;;;12.60;99.90;;;;;;4994641;28;20443;-72
2023/03/20 08:28:07;;;;;;;2.43;2.20;;;12.30;99.90;;;;;;4994515;28;20485;-72
2023/03/20 08:30:32;;;;;;;2.67;2.47;;;12.00;99.90;;;;;;4994245;28;20195;-71
2023/03/20 08:32:58;;;;;;;2.83;2.50;;;12.00;99.90;;;;;;4994800;28;20427;-72
2023/03/20 08:35:24;;;;;;;3.60;2.20;;;12.00;99.90;;;;;;4994092;28;20211;-72
2023/03/20 08:37:50;;;;;;;2.40;2.20;;;12.20;99.90;;;;;;4994752;28;20184;-72
2023/03/20 08:40:15;;;;;;;2.50;2.30;;;12.20;99.90;;;;;;4993945;28;20449;-72
2023/03/20 08:42:41;;;;;;;3.90;2.30;;;12.40;99.90;;;;;;4994552;28;20167;-72
2023/03/20 08:45:07;;;;;;;3.00;2.70;;;12.70;99.90;;;;;;4994083;28;20258;-72
2023/03/20 08:47:32;;;;;;;1.90;1.80;;;12.80;99.90;;;;;;4994410;28;20203;-72
2023/03/20 08:49:58;;;;;;;2.43;2.00;;;12.70;99.90;;;;;;4993472;28;21039;-72
2023/03/20 08:52:24;;;;;;;2.80;1.90;;;12.50;99.90;;;;;;4994716;28;20188;-72
2023/03/20 08:54:50;;;;;;;2.10;2.00;;;12.60;99.90;;;;;;4993336;28;20239;-72
2023/03/20 08:57:15;;;;;;;2.40;2.20;;;12.80;99.90;;;;;;4994108;28;20160;-71
2023/03/20 08:59:41;;;;;;;8.07;2.47;;;13.10;99.90;;;;;;4993521;28;20454;-72
2023/03/20 09:02:09;;;;;;;1.50;1.40;;;13.40;99.90;;;;;;4994115;28;20549;-72
2023/03/20 09:04:35;;;;;;;3.33;3.03;;;13.70;99.90;;;;;;4993593;28;20890;-71
2023/03/20 09:07:01;;;;;;;3.57;2.70;;;13.70;99.90;;;;;;4993649;28;20431;-72
2023/03/20 09:09:28;;;;;;;5.73;3.57;;;14.00;99.90;;;;;;4993292;28;20196;-72
2023/03/20 09:11:55;;;;;;;3.83;2.60;;;14.60;99.90;;;;;;4994023;28;20419;-72
2023/03/20 09:14:22;;;;;;;2.67;2.47;;;14.70;99.90;;;;;;4993322;28;20431;-72
2023/03/20 09:16:47;;;;;;;3.70;2.80;;;14.60;99.90;;;;;;4993828;28;20470;-71
2023/03/20 09:19:13;;;;;;;3.83;2.13;;;14.40;99.90;;;;;;4993428;28;20453;-71
2023/03/20 09:21:39;;;;;;;6.93;2.70;;;14.40;99.90;;;;;;4993705;28;20527;-71
2023/03/20 09:24:05;;;;;;;3.00;2.60;;;14.40;99.90;;;;;;4993702;28;20263;-72
2023/03/20 09:26:30;;;;;;;3.77;3.00;;;14.40;99.90;;;;;;4992077;28;20234;-72
2023/03/20 09:28:56;;;;;;;2.97;2.67;;;14.00;99.90;;;;;;4992636;28;20499;-72
2023/03/20 09:31:22;;;;;;;2.60;2.40;;;13.80;99.90;;;;;;4993772;28;20172;-71
2023/03/20 09:33:47;;;;;;;2.90;2.70;;;13.70;99.90;;;;;;4993720;28;20164;-71
2023/03/20 09:36:14;;;;;;;3.57;3.17;;;13.80;99.90;;;;;;4992643;28;20481;-71
2023/03/20 09:38:41;;;;;;;3.57;2.23;;;13.70;99.90;;;;;;4992894;28;20254;-71
2023/03/20 09:41:16;;;;;;;4.10;2.70;;;13.70;99.90;;;;;;4993560;28;20869;-71
2023/03/20 09:43:45;;;;;;;4.57;3.67;;;13.80;99.90;;;;;;4993356;28;20430;-71
2023/03/20 09:46:29;;;;;;;3.33;3.03;;;14.10;99.90;;;;;;4993103;28;20445;-71
2023/03/20 09:49:14;;;;;;;2.90;2.60;;;14.40;99.90;;;;;;4992613;28;20439;-71
2023/03/20 09:51:55;;;;;;;2.60;2.40;;;14.70;99.90;;;;;;4993729;28;20462;-71
2023/03/20 09:54:24;;;;;;;3.43;3.13;;;14.90;99.90;;;;;;4993266;28;20431;-71
2023/03/20 09:56:55;;;;;;;3.63;3.33;;;14.70;99.90;;;;;;4992355;28;20466;-72
2023/03/20 09:59:24;;;;;;;3.20;3.00;;;14.40;99.90;;;;;;4990174;28;21430;-71
2023/03/20 10:01:53;;;;;;;2.67;2.47;;;14.10;99.90;;;;;;4995110;28;20491;-71
2023/03/20 10:04:18;;;;;;;2.70;2.50;;;14.10;99.90;;;;;;4992885;28;20611;-71
2023/03/20 10:06:45;;;;;;;2.27;2.17;;;14.30;99.90;;;;;;4992212;28;20423;-72
2023/03/20 10:09:23;;;;;;;2.40;2.20;;;14.30;99.90;;;;;;4983586;28;20180;-71
2023/03/20 10:12:46;;;;;;;2.23;2.03;;;14.40;99.90;;;;;;4992893;28;20514;-71
2023/03/20 10:15:36;;;;;;;6.33;2.27;;;14.70;99.90;;;;;;4949090;28;20519;-71
2023/03/20 10:18:20;;;;;;;2.63;2.20;;;14.70;99.90;;;;;;4971434;28;20443;-71
2023/03/20 10:21:17;;;;;;;2.67;2.47;;;14.60;99.90;;;;;;4991010;28;20478;-71
2023/03/20 10:23:54;;;;;;;2.37;2.17;;;15.00;99.90;;;;;;4992514;28;20454;-71
2023/03/20 10:26:22;;;;;;;2.67;2.10;;;15.20;99.90;;;;;;4992918;28;20473;-71
2023/03/20 10:28:59;;;;;;;2.50;2.30;;;15.10;99.90;;;;;;4991613;28;20465;-72
2023/03/20 10:31:43;;;;;;;2.40;2.30;;;15.00;99.90;;;;;;4991587;28;20464;-71
2023/03/20 10:34:21;;;;;;;3.60;2.43;;;14.90;99.90;;;;;;4992974;28;20538;-71
2023/03/20 10:37:21;;;;;;;2.80;2.60;;;15.00;99.90;;;;;;4992892;28;21046;-71
2023/03/20 10:40:07;;;;;;;2.43;2.23;;;14.80;99.90;;;;;;4991332;28;20450;-69
2023/03/20 10:42:37;;;;;;;3.47;3.00;;;14.50;99.90;;;;;;4992874;28;20462;-68
2023/03/20 10:45:38;;;;;;;3.13;2.43;;;14.40;99.90;;;;;;4992955;28;20909;-70
2023/03/20 10:48:12;;;;;;;3.53;1.93;;;14.40;99.90;;;;;;4984713;28;20533;-72
2023/03/20 10:50:47;;;;;;;2.30;2.20;;;14.40;99.90;;;;;;4992461;28;20480;-72
2023/03/20 10:53:22;;;;;;;2.10;1.90;;;14.50;99.90;;;;;;4992800;28;20429;-72
2023/03/20 10:55:49;;;;;;;7.40;2.00;;;14.40;99.90;;;;;;4992637;28;20458;-72
2023/03/20 10:58:21;;;;;;;2.27;2.03;;;14.40;99.90;;;;;;4991109;28;20529;-72
2023/03/20 11:00:48;;;;;;;2.53;2.33;;;14.50;99.90;;;;;;4992351;28;20450;-72
2023/03/20 11:03:26;;;;;;;3.40;2.57;;;14.50;99.90;;;;;;4992525;28;20451;-72
2023/03/20 11:06:05;;;;;;;2.37;2.27;;;14.40;99.90;;;;;;4992630;28;20427;-73
2023/03/20 11:08:42;;;;;;;2.60;2.40;;;14.60;99.90;;;;;;4991229;28;20442;-73
2023/03/20 11:11:08;;;;;;;2.60;2.37;;;14.90;99.90;;;;;;4992417;28;20533;-73
2023/03/20 11:13:38;;;;;;;2.30;2.10;;;15.00;99.90;;;;;;4991224;28;20812;-72
2023/03/20 11:16:10;;;;;;;3.03;2.73;;;15.00;99.90;;;;;;4992520;28;20474;-72
2023/03/20 11:18:36;;;;;;;2.80;2.50;;;14.90;99.90;;;;;;4991183;28;20442;-72
2023/03/20 11:21:02;;;;;;;2.43;2.23;;;14.80;99.90;;;;;;4992329;28;20477;-72
2023/03/20 11:23:33;;;;;;;4.50;3.13;;;14.60;99.90;;;;;;4995088;28;20584;-72
2023/03/20 11:26:01;;;;;;;2.27;2.13;;;14.40;99.90;;;;;;4996534;28;20517;-72
2023/03/20 11:28:35;;;;;;;2.70;2.50;;;14.40;99.90;;;;;;4995036;28;20450;-72
2023/03/20 11:31:12;;;;;;;2.07;1.93;;;14.40;99.90;;;;;;4996003;28;20469;-71
2023/03/20 11:34:13;;;;;;;4.60;3.20;;;14.40;99.90;;;;;;4996182;28;20505;-72
2023/03/20 11:36:44;;;;;;;3.40;3.10;;;14.40;99.90;;;;;;4995994;28;20971;-72
2023/03/20 11:39:13;;;;;;;3.83;3.47;;;14.60;99.90;;;;;;4994673;28;20573;-71
2023/03/20 11:41:49;;;;;;;4.90;4.40;;;15.20;99.90;;;;;;4996082;28;20440;-72
2023/03/20 11:44:31;;;;;;;5.93;5.37;;;15.40;99.90;;;;;;4994789;28;20431;-72
2023/03/20 11:47:04;;;;;;;7.47;6.70;;;15.40;99.90;;;;;;4996192;28;20510;-72
2023/03/20 11:49:31;;;;;;;13.13;9.63;;;15.50;99.90;;;;;;4994443;28;21026;-72
2023/03/20 11:52:10;;;;;;;11.50;9.30;;;15.30;99.90;;;;;;4996025;28;20429;-71
2023/03/20 11:54:37;;;;;;;7.20;6.20;;;15.20;99.90;;;;;;4995809;28;20863;-72
2023/03/20 11:57:03;;;;;;;7.57;6.13;;;15.10;99.90;;;;;;4995888;28;20430;-72
2023/03/20 11:59:34;;;;;;;5.80;4.70;;;15.00;99.90;;;;;;4994079;28;20893;-72
2023/03/20 12:02:02;;;;;;;5.40;4.90;;;15.00;99.90;;;;;;4995559;28;20203;-72
2023/03/20 12:04:29;;;;;;;6.13;5.43;;;15.20;99.90;;;;;;4995682;28;20454;-72
2023/03/20 12:07:12;;;;;;;7.07;6.00;;;15.30;99.90;;;;;;4995426;28;20916;-73
2023/03/20 12:09:52;;;;;;;5.77;4.40;;;15.50;99.90;;;;;;4991045;28;20467;-73
2023/03/20 12:12:39;;;;;;;8.03;6.57;;;15.70;99.90;;;;;;4987122;28;20419;-72
2023/03/20 12:15:23;;;;;;;5.57;5.03;;;17.60;99.90;;;;;;4994642;28;20497;-73
2023/03/20 12:18:03;;;;;;;5.60;5.10;;;18.80;99.90;;;;;;4995196;28;20430;-73
2023/03/20 12:20:31;;;;;;;5.47;5.07;;;18.70;99.90;;;;;;4994338;28;20442;-73
2023/03/20 12:23:20;;;;;;;5.00;4.50;;;18.60;99.90;;;;;;4986221;28;20525;-73
2023/03/20 12:26:13;;;;;;;4.40;4.00;;;19.10;99.90;;;;;;4994193;28;20442;-73
2023/03/20 12:28:45;;;;;;;4.10;3.73;;;18.90;99.90;;;;;;4994236;28;20513;-73
2023/03/20 12:31:13;;;;;;;3.70;3.40;;;18.50;99.90;;;;;;4994690;28;20537;-73
2023/03/20 12:33:46;;;;;;;5.13;4.73;;;17.60;99.90;;;;;;4992740;28;20448;-72
2023/03/20 12:36:16;;;;;;;4.30;3.90;;;17.20;99.90;;;;;;4986355;28;20462;-73
2023/03/20 12:38:42;;;;;;;5.17;4.47;;;17.00;99.90;;;;;;4998199;28;20429;-73
2023/03/20 12:41:13;;;;;;;4.00;3.70;;;17.10;99.90;;;;;;5014143;28;20438;-73
2023/03/20 12:44:17;;;;;;;4.10;3.80;;;17.00;99.90;;;;;;5014056;28;20425;-72
2023/03/20 12:46:51;;;;;;;3.73;3.43;;;16.80;99.90;;;;;;5000675;28;20453;-73
2023/03/20 12:49:46;;;;;;;4.63;4.20;;;16.60;99.90;;;;;;4986552;28;20442;-73
2023/03/20 12:52:40;;;;;;;4.67;4.00;;;16.30;99.90;;;;;;4993690;28;20441;-72
2023/03/20 12:55:14;;;;;;;3.53;3.33;;;16.20;99.90;;;;;;4988540;28;20811;-73
2023/03/20 12:58:07;;;;;;;3.30;3.00;;;15.80;99.90;;;;;;4990201;28;20441;-73
2023/03/20 13:00:48;;;;;;;3.80;3.50;;;15.50;99.90;;;;;;4974255;28;20431;-72
2023/03/20 13:03:29;;;;;;;3.63;3.33;;;15.20;99.90;;;;;;4974959;28;20451;-72
2023/03/20 13:06:34;;;;;;;3.77;3.10;;;15.00;99.90;;;;;;4979526;28;20442;-73
2023/03/20 13:09:15;;;;;;;7.23;3.47;;;14.70;99.90;;;;;;4979052;28;20474;-73
2023/03/20 13:11:51;;;;;;;4.70;3.93;;;14.70;99.90;;;;;;4991687;28;20423;-73